Buffalo, IN

12:58 PM EST on December 20, 2014 (GMT -0500)
Starke County | Change Station
CLOSE
Current Station
Airport
Location: Knox,
Elevation: 686 ft
Nearby Weather Stations

Elev 686 ft 41.33 °N, 86.66 °W | Updated 3 minutes ago

Overcast
Overcast
32 °F
Feels Like 29 °F
N
4
Wind Variable Wind from WSW

Today
High -- | Low -- °F
--% Chance of Precip.
Yesterday
High -- | Low -- °F
Precip. -- in
8:07 AM 5:21 PM
Waning Crescent, 2% visible
Pressure 30.27 in
Visibility 10.0 miles
Clouds Overcast 7000 ft
Windchill 29 °F
Dew Point 21 °F
Humidity 64%
Rainfall 0.00 in
Snow Depth Not available.
UV 1 out of 12
Pollen .10 out of 12
Air Quality Not available.
Flu Activity Not available.
METAR KOXI 201755Z AUTO 24003KT 10SM OVC070 00/M06 A3027 RMK AO1 T00031059 10273 21130

More Conditions Fewer Conditions

Pressure 30.27 in
Visibility 10.0 miles
Clouds Overcast 7000 ft
Windchill 29 °F
Dew Point 21 °F
Humidity 64%
Rainfall 0.00 in
Snow Depth Not available.
UV 1 out of 12
Pollen .10 out of 12
Air Quality Not available.
Flu Activity Not available.
METAR KOXI 201755Z AUTO 24003KT 10SM OVC070 00/M06 A3027 RMK AO1 T00031059 10273 21130

More Conditions Fewer Conditions

10-Day Weather Forecast

Almanac

Astronomy

Dec. 20, 2014 Rise Set
Actual Time
Civil Twilight
Nautical Twilight
Astronomical Twilight
Moon
Length of Visible Light
Length of Day
Tomorrow will be .
, % of the Moon is Illuminated

Today's Extremes

State Highs State Lows

Community

WunderPhotos

Upload Photos

1,779,228 photos uploaded!

WunderBlogs® & News

Nearby

Air Quality

  Air Quality AQ Index Pollutant
Not available.

Snow Depth

Station Depth Elevation

Earthquake Activity

City Distance Mag. Time & Date
Minimum magnitude displayed is 2.5.

Coastal Water Temperatures

Place Temperature

Nearby Weather Stations